Time;durP1;ratioP1;P1;durP2;ratioP2;P2;SDS_P1;SDS_P2;PMS_P1;PMS_P2;Temp;Humidity;BMP_temperature;BMP_pressure;BME280_temperature;BME280_humidity;BME280_pressure;Samples;Min_cycle;Max_cycle;Signal;HPM_P1;HPM_P2
2023/04/17 00:01:36;;;;;;;73.78;31.88;;;7.70;99.90;;;;;;5037706;28;20049;-64
2023/04/17 00:04:03;;;;;;;78.32;31.30;;;7.70;99.90;;;;;;5036715;28;20033;-64
2023/04/17 00:06:32;;;;;;;74.45;31.95;;;7.70;99.90;;;;;;5040166;28;20076;-64
2023/04/17 00:08:58;;;;;;;74.50;32.03;;;7.80;99.90;;;;;;5032790;28;20120;-64
2023/04/17 00:11:25;;;;;;;78.50;33.38;;;8.20;99.90;;;;;;5038858;28;20335;-65
2023/04/17 00:13:51;;;;;;;81.82;33.88;;;7.70;99.90;;;;;;5022554;28;21495;-65
2023/04/17 00:16:16;;;;;;;72.05;32.42;;;7.80;99.90;;;;;;5035896;28;20041;-65
2023/04/17 00:18:42;;;;;;;78.55;33.03;;;7.70;99.90;;;;;;5045772;28;20102;-64
2023/04/17 00:21:08;;;;;;;75.72;33.25;;;7.70;99.90;;;;;;5079877;28;20547;-65
2023/04/17 00:23:34;;;;;;;73.88;32.50;;;7.70;99.90;;;;;;5076198;28;20039;-64
2023/04/17 00:26:00;;;;;;;83.15;32.97;;;7.80;99.90;;;;;;5080227;28;20532;-64
2023/04/17 00:28:25;;;;;;;80.57;33.13;;;7.80;99.90;;;;;;5062018;28;20039;-64
2023/04/17 00:30:51;;;;;;;84.18;35.17;;;7.80;99.90;;;;;;5045725;28;20101;-64
2023/04/17 00:33:17;;;;;;;93.07;34.67;;;7.80;99.90;;;;;;5080405;28;20440;-64
2023/04/17 00:35:43;;;;;;;86.15;34.45;;;7.70;99.90;;;;;;5061591;28;20040;-65
2023/04/17 00:38:08;;;;;;;88.47;34.17;;;7.70;99.90;;;;;;5079647;28;20032;-64
2023/04/17 00:40:35;;;;;;;93.20;35.47;;;7.80;99.90;;;;;;5080599;28;20040;-65
2023/04/17 00:43:05;;;;;;;77.05;34.25;;;7.80;99.90;;;;;;5062921;28;20093;-64
2023/04/17 00:45:31;;;;;;;86.85;33.38;;;7.80;99.90;;;;;;5045506;28;20036;-64
2023/04/17 00:47:58;;;;;;;85.65;33.85;;;7.80;99.90;;;;;;5034307;28;20043;-64
2023/04/17 00:50:27;;;;;;;92.43;34.80;;;7.80;99.90;;;;;;5048042;28;20134;-65
2023/04/17 00:52:54;;;;;;;89.55;34.13;;;7.80;99.90;;;;;;5064469;28;20422;-65
2023/04/17 00:55:20;;;;;;;93.00;35.00;;;7.80;99.90;;;;;;5081053;28;20045;-65
2023/04/17 00:57:48;;;;;;;94.25;35.20;;;7.80;99.90;;;;;;5059513;28;20044;-64
2023/04/17 01:00:15;;;;;;;94.50;33.85;;;7.80;99.90;;;;;;5079689;28;20350;-64
2023/04/17 01:02:41;;;;;;;85.68;32.25;;;7.80;99.90;;;;;;5063587;28;20118;-64
2023/04/17 01:05:08;;;;;;;91.07;34.15;;;7.80;99.90;;;;;;5082333;28;20123;-64
2023/04/17 01:07:34;;;;;;;85.13;33.05;;;7.80;99.90;;;;;;5065992;28;20036;-64
2023/04/17 01:10:00;;;;;;;84.22;34.00;;;7.80;99.90;;;;;;5079830;28;20037;-64
2023/04/17 01:12:25;;;;;;;83.25;33.55;;;7.80;99.90;;;;;;5081598;28;20040;-64
2023/04/17 01:14:54;;;;;;;81.55;35.10;;;7.80;99.90;;;;;;5059500;28;20043;-64
2023/04/17 01:17:21;;;;;;;76.72;31.75;;;7.80;99.90;;;;;;5082079;28;20043;-64
2023/04/17 01:19:48;;;;;;;89.80;34.47;;;7.80;99.90;;;;;;5080130;28;20109;-64
2023/04/17 01:22:18;;;;;;;74.32;33.25;;;7.80;99.90;;;;;;5045348;28;20044;-64
2023/04/17 01:24:44;;;;;;;82.82;32.78;;;7.80;99.90;;;;;;5060138;28;20127;-64
2023/04/17 01:27:12;;;;;;;79.75;34.17;;;7.80;99.90;;;;;;5063085;28;20134;-64
2023/04/17 01:29:38;;;;;;;87.78;33.22;;;7.80;99.90;;;;;;5060557;28;20047;-64
2023/04/17 01:32:04;;;;;;;86.80;33.58;;;7.80;99.90;;;;;;5076875;28;20032;-64
2023/04/17 01:34:30;;;;;;;91.50;34.53;;;7.80;99.90;;;;;;5044100;28;20237;-64
2023/04/17 01:36:56;;;;;;;76.30;33.03;;;7.80;99.90;;;;;;5080640;28;20094;-64
2023/04/17 01:39:21;;;;;;;82.30;32.80;;;7.80;99.90;;;;;;5065347;28;20040;-64
2023/04/17 01:41:47;;;;;;;76.57;32.78;;;7.80;99.90;;;;;;5060877;28;20051;-64
2023/04/17 01:44:13;;;;;;;88.68;33.10;;;7.80;99.90;;;;;;5039832;28;20028;-64
2023/04/17 01:46:39;;;;;;;78.72;31.92;;;7.80;99.90;;;;;;5066914;28;20032;-64
2023/04/17 01:49:05;;;;;;;76.32;30.83;;;7.80;99.90;;;;;;5043616;28;20040;-64
2023/04/17 01:51:30;;;;;;;87.63;34.63;;;7.80;99.90;;;;;;5076060;28;20060;-65
2023/04/17 01:53:56;;;;;;;78.53;32.03;;;7.80;99.90;;;;;;5059657;28;20524;-64
2023/04/17 01:56:22;;;;;;;75.40;32.45;;;7.80;99.90;;;;;;5042378;28;20521;-64
2023/04/17 01:58:47;;;;;;;81.30;32.47;;;7.80;99.90;;;;;;5076971;28;20067;-64
2023/04/17 02:01:13;;;;;;;76.43;32.65;;;7.80;99.90;;;;;;5052537;28;20481;-64
2023/04/17 02:03:39;;;;;;;83.18;31.02;;;7.80;99.90;;;;;;5080759;28;20114;-64
2023/04/17 02:06:05;;;;;;;74.65;30.75;;;7.80;99.90;;;;;;5060871;28;20508;-64
2023/04/17 02:08:31;;;;;;;67.28;31.50;;;7.80;99.90;;;;;;5076001;28;20458;-64
2023/04/17 02:10:56;;;;;;;80.88;32.30;;;7.80;99.90;;;;;;5063781;28;20044;-64
2023/04/17 02:13:22;;;;;;;71.88;30.20;;;7.80;99.90;;;;;;5078395;28;20725;-64
2023/04/17 02:15:48;;;;;;;77.10;31.63;;;7.80;99.90;;;;;;5057546;28;20056;-64
2023/04/17 02:18:13;;;;;;;75.07;30.83;;;7.80;99.90;;;;;;5077771;28;20093;-64
2023/04/17 02:20:39;;;;;;;70.28;31.00;;;7.80;99.90;;;;;;5062654;28;20306;-64
2023/04/17 02:23:06;;;;;;;70.80;30.75;;;7.80;99.90;;;;;;5063056;28;20045;-65
2023/04/17 02:25:32;;;;;;;73.25;30.20;;;7.80;99.90;;;;;;5080010;28;20122;-64
2023/04/17 02:27:58;;;;;;;83.65;31.10;;;7.80;99.90;;;;;;5044332;28;20037;-64
2023/04/17 02:30:25;;;;;;;73.40;29.98;;;7.80;99.90;;;;;;5082363;28;20040;-64
2023/04/17 02:32:53;;;;;;;63.45;29.80;;;7.80;99.90;;;;;;5078009;28;20036;-65
2023/04/17 02:35:20;;;;;;;72.43;30.17;;;7.80;99.90;;;;;;5060228;28;20052;-64
2023/04/17 02:37:46;;;;;;;73.00;31.38;;;7.80;99.90;;;;;;5077729;28;20044;-64
2023/04/17 02:40:12;;;;;;;72.15;30.33;;;7.80;99.90;;;;;;5074782;28;20049;-64
2023/04/17 02:42:38;;;;;;;73.97;32.00;;;7.80;99.90;;;;;;5077281;28;20363;-64
2023/04/17 02:45:04;;;;;;;73.07;30.60;;;7.80;99.90;;;;;;5044430;28;20039;-65
2023/04/17 02:47:30;;;;;;;74.60;32.05;;;7.80;99.90;;;;;;5079079;28;20086;-64
2023/04/17 02:49:56;;;;;;;73.50;31.63;;;7.80;99.90;;;;;;5075410;28;20048;-64
2023/04/17 02:52:22;;;;;;;76.00;31.70;;;7.80;99.90;;;;;;5042089;28;20489;-65
2023/04/17 02:54:48;;;;;;;82.50;33.35;;;7.80;99.90;;;;;;5076520;28;20039;-64
2023/04/17 02:57:13;;;;;;;81.40;33.47;;;7.80;99.90;;;;;;5044649;28;20416;-64
2023/04/17 02:59:39;;;;;;;78.57;33.10;;;7.80;99.90;;;;;;5059948;28;20424;-64
2023/04/17 03:02:05;;;;;;;86.82;33.28;;;7.80;99.90;;;;;;5061282;28;20105;-64
2023/04/17 03:04:33;;;;;;;79.15;31.65;;;7.80;99.90;;;;;;5050938;28;20497;-64
2023/04/17 03:06:59;;;;;;;90.80;34.67;;;7.80;99.90;;;;;;5065241;28;20469;-64
2023/04/17 03:09:25;;;;;;;94.10;34.40;;;7.70;99.90;;;;;;5081486;28;20036;-64
2023/04/17 03:11:51;;;;;;;104.35;36.88;;;7.70;99.90;;;;;;5046295;28;20029;-64
2023/04/17 03:14:16;;;;;;;114.93;36.45;;;7.70;99.90;;;;;;5066879;28;20474;-64
2023/04/17 03:16:42;;;;;;;111.10;36.28;;;7.60;99.90;;;;;;5085426;28;20032;-64
2023/04/17 03:19:08;;;;;;;102.50;37.40;;;7.70;99.90;;;;;;5066592;28;20071;-64
2023/04/17 03:21:33;;;;;;;113.18;37.50;;;7.60;99.90;;;;;;5082145;28;20086;-64
2023/04/17 03:23:59;;;;;;;125.80;39.13;;;7.60;99.90;;;;;;5069516;28;20040;-64
2023/04/17 03:26:25;;;;;;;121.07;37.80;;;7.60;99.90;;;;;;5067179;28;20618;-64
2023/04/17 03:28:51;;;;;;;121.32;38.33;;;7.60;99.90;;;;;;5051169;28;20047;-64
2023/04/17 03:31:16;;;;;;;124.53;38.83;;;7.60;99.90;;;;;;5046009;28;20051;-64
2023/04/17 03:33:42;;;;;;;118.95;39.55;;;7.60;99.90;;;;;;5067219;28;20062;-64
2023/04/17 03:36:08;;;;;;;104.25;38.50;;;7.60;99.90;;;;;;5083286;28;20058;-64
2023/04/17 03:38:35;;;;;;;114.97;38.70;;;7.60;99.90;;;;;;5065822;28;20040;-64
2023/04/17 03:41:01;;;;;;;145.77;41.90;;;7.60;99.90;;;;;;5066576;28;20489;-64
2023/04/17 03:43:26;;;;;;;133.90;40.92;;;7.60;99.90;;;;;;5077576;28;20043;-64
2023/04/17 03:45:52;;;;;;;155.13;42.33;;;7.60;99.90;;;;;;5081562;28;20060;-64
2023/04/17 03:48:18;;;;;;;157.45;40.95;;;7.60;99.90;;;;;;5051279;28;20105;-64
2023/04/17 03:50:43;;;;;;;158.23;42.60;;;7.60;99.90;;;;;;5082690;28;20044;-64
2023/04/17 03:53:09;;;;;;;177.93;44.22;;;7.60;99.90;;;;;;5084082;28;20032;-65
2023/04/17 03:55:35;;;;;;;140.95;40.22;;;7.60;99.90;;;;;;5080285;28;20481;-64
2023/04/17 03:58:01;;;;;;;147.13;41.33;;;7.50;99.90;;;;;;5080337;28;20036;-64
2023/04/17 04:00:27;;;;;;;141.13;41.90;;;7.50;99.90;;;;;;5079702;28;20036;-64
2023/04/17 04:02:53;;;;;;;140.68;42.88;;;7.50;99.90;;;;;;5066951;28;20032;-64
2023/04/17 04:05:18;;;;;;;136.43;40.70;;;7.50;99.90;;;;;;5066761;28;20480;-64
2023/04/17 04:07:44;;;;;;;146.55;42.03;;;7.50;99.90;;;;;;5083764;28;20036;-64
2023/04/17 04:10:10;;;;;;;128.95;40.83;;;7.50;99.90;;;;;;5067801;28;20444;-64
2023/04/17 04:12:36;;;;;;;138.32;40.70;;;7.60;99.90;;;;;;5083483;28;20067;-65
2023/04/17 04:15:01;;;;;;;113.50;39.47;;;7.50;99.90;;;;;;5067543;28;20044;-64
2023/04/17 04:17:27;;;;;;;143.48;41.20;;;7.50;99.90;;;;;;5067071;28;20063;-64
2023/04/17 04:19:53;;;;;;;115.30;39.20;;;7.50;99.90;;;;;;5045787;28;20070;-64
2023/04/17 04:22:20;;;;;;;130.48;40.22;;;7.60;99.90;;;;;;5066173;28;20131;-64
2023/04/17 04:24:46;;;;;;;118.65;39.78;;;7.60;99.90;;;;;;5061672;28;20087;-64
2023/04/17 04:27:12;;;;;;;121.75;38.92;;;7.50;99.90;;;;;;5062269;28;20481;-64
2023/04/17 04:29:38;;;;;;;127.95;39.92;;;7.50;99.90;;;;;;5084150;28;20044;-64
2023/04/17 04:32:03;;;;;;;116.00;39.47;;;7.50;99.90;;;;;;5065616;28;20109;-64
2023/04/17 04:34:29;;;;;;;109.95;37.80;;;7.50;99.90;;;;;;5084823;28;20028;-64
2023/04/17 04:36:56;;;;;;;117.70;37.05;;;7.50;99.90;;;;;;5067300;28;20036;-64
2023/04/17 04:39:22;;;;;;;114.97;37.67;;;7.40;99.90;;;;;;5067162;28;20044;-64
2023/04/17 04:41:51;;;;;;;127.18;38.38;;;7.40;99.90;;;;;;5082215;28;20059;-65
2023/04/17 04:44:18;;;;;;;119.18;39.75;;;7.40;99.90;;;;;;5083533;28;20035;-64
2023/04/17 04:46:44;;;;;;;125.63;40.53;;;7.40;99.90;;;;;;5066846;28;20105;-64
2023/04/17 04:49:10;;;;;;;120.68;39.13;;;7.40;99.90;;;;;;5063345;28;20118;-64
2023/04/17 04:51:37;;;;;;;134.77;39.47;;;7.40;99.90;;;;;;5080973;28;20040;-65
2023/04/17 04:54:03;;;;;;;146.95;43.42;;;7.40;99.90;;;;;;5082637;28;20032;-64
2023/04/17 04:56:28;;;;;;;124.22;41.03;;;7.40;99.90;;;;;;5081727;28;20028;-64
2023/04/17 04:58:55;;;;;;;118.72;39.50;;;7.40;99.90;;;;;;5078743;28;20456;-64
2023/04/17 05:01:21;;;;;;;116.97;39.28;;;7.40;99.90;;;;;;5045858;28;20044;-64
2023/04/17 05:03:47;;;;;;;127.35;41.42;;;7.40;99.90;;;;;;5061130;28;20040;-64
2023/04/17 05:06:13;;;;;;;122.32;38.90;;;7.40;99.90;;;;;;5078615;28;20483;-64
2023/04/17 05:08:39;;;;;;;113.07;39.05;;;7.40;99.90;;;;;;5082892;28;20181;-64
2023/04/17 05:11:05;;;;;;;116.75;39.38;;;7.40;99.90;;;;;;5081391;28;20485;-64
2023/04/17 05:13:31;;;;;;;105.05;36.63;;;7.40;99.90;;;;;;5065932;28;20028;-65
2023/04/17 05:15:57;;;;;;;121.40;39.92;;;7.40;99.90;;;;;;5063644;28;20585;-64
2023/04/17 05:18:23;;;;;;;112.72;37.30;;;7.40;99.90;;;;;;5079679;28;20411;-64
2023/04/17 05:20:50;;;;;;;121.18;39.10;;;7.40;99.90;;;;;;5073952;28;20085;-64
2023/04/17 05:23:16;;;;;;;115.05;37.95;;;7.40;99.90;;;;;;5080478;28;20054;-64
2023/04/17 05:25:42;;;;;;;131.50;39.75;;;7.50;99.90;;;;;;5082335;28;20040;-64
2023/04/17 05:28:08;;;;;;;125.05;40.08;;;7.50;99.90;;;;;;5033711;28;20032;-64
2023/04/17 05:30:34;;;;;;;113.85;38.97;;;7.40;99.90;;;;;;5090599;28;20427;-64
2023/04/17 05:33:00;;;;;;;117.45;38.80;;;7.40;99.90;;;;;;5071349;28;20123;-65
2023/04/17 05:35:26;;;;;;;121.93;38.22;;;7.50;99.90;;;;;;5089985;28;20058;-64
2023/04/17 05:37:53;;;;;;;124.82;39.83;;;7.50;99.90;;;;;;5088366;28;20058;-65
2023/04/17 05:40:18;;;;;;;113.57;38.50;;;7.50;99.90;;;;;;5068847;28;20043;-64
2023/04/17 05:42:44;;;;;;;124.03;40.28;;;7.50;99.90;;;;;;5070177;28;20345;-64
2023/04/17 05:45:14;;;;;;;114.68;38.88;;;7.50;99.90;;;;;;5089503;28;20367;-64
2023/04/17 05:47:40;;;;;;;98.50;37.75;;;7.50;99.90;;;;;;5071997;28;20036;-64
2023/04/17 05:50:07;;;;;;;105.00;38.58;;;7.10;99.90;;;;;;5051842;28;20122;-65
2023/04/17 05:52:32;;;;;;;110.57;38.08;;;7.60;99.90;;;;;;5059828;28;20105;-64
2023/04/17 05:54:58;;;;;;;115.00;37.60;;;7.60;99.90;;;;;;5080572;28;20040;-64
2023/04/17 05:57:24;;;;;;;101.55;35.95;;;7.50;99.90;;;;;;5064940;28;20435;-64
2023/04/17 05:59:50;;;;;;;107.85;35.33;;;7.60;99.90;;;;;;5084674;28;20044;-65
2023/04/17 06:02:16;;;;;;;117.35;37.33;;;7.60;99.90;;;;;;5087032;28;20508;-64
2023/04/17 06:04:42;;;;;;;118.82;38.35;;;7.60;99.90;;;;;;5097459;28;20066;-64
2023/04/17 06:07:10;;;;;;;111.80;38.15;;;7.60;99.90;;;;;;5077769;28;20112;-64
2023/04/17 06:09:36;;;;;;;111.95;35.35;;;7.60;99.90;;;;;;5098955;28;20099;-65
2023/04/17 06:12:03;;;;;;;105.13;36.47;;;7.60;99.90;;;;;;5086533;28;20032;-64
2023/04/17 06:14:29;;;;;;;96.75;35.35;;;7.60;99.90;;;;;;5089227;28;20039;-64
2023/04/17 06:16:56;;;;;;;94.25;34.22;;;7.70;99.90;;;;;;5067121;28;20067;-64
2023/04/17 06:19:22;;;;;;;90.82;33.25;;;7.70;99.90;;;;;;5089059;28;20706;-64
2023/04/17 06:21:48;;;;;;;87.00;34.50;;;7.70;99.90;;;;;;5072471;28;20044;-64
2023/04/17 06:24:14;;;;;;;88.90;34.33;;;7.70;99.90;;;;;;5088199;28;20028;-64
2023/04/17 06:26:40;;;;;;;95.00;33.83;;;7.70;99.90;;;;;;5064904;28;20032;-64
2023/04/17 06:29:06;;;;;;;94.93;34.30;;;7.80;99.90;;;;;;5079100;28;20473;-65
2023/04/17 06:31:31;;;;;;;91.72;35.25;;;7.80;99.90;;;;;;5050227;28;20040;-64
2023/04/17 06:33:57;;;;;;;104.45;37.50;;;7.80;99.90;;;;;;5068437;28;20642;-64
2023/04/17 06:36:23;;;;;;;85.82;33.35;;;7.80;99.90;;;;;;5059335;28;20055;-65
2023/04/17 06:38:48;;;;;;;87.30;33.10;;;7.80;99.90;;;;;;5039920;28;20055;-65
2023/04/17 06:41:15;;;;;;;95.68;35.17;;;7.80;99.90;;;;;;5023104;28;20035;-64
2023/04/17 06:43:40;;;;;;;95.82;34.35;;;7.80;99.90;;;;;;5071387;28;20497;-64
2023/04/17 06:46:06;;;;;;;84.05;34.15;;;7.80;99.90;;;;;;5072840;28;20051;-64
2023/04/17 06:48:32;;;;;;;99.20;35.83;;;7.80;99.90;;;;;;5051592;28;20336;-65
2023/04/17 06:50:57;;;;;;;101.28;35.75;;;7.80;99.90;;;;;;5035311;28;20044;-64
2023/04/17 06:53:23;;;;;;;89.70;33.03;;;7.90;99.90;;;;;;5072571;28;20131;-64
2023/04/17 06:55:49;;;;;;;88.20;34.63;;;7.80;99.90;;;;;;5072099;28;20032;-64
2023/04/17 06:58:14;;;;;;;96.20;34.35;;;7.80;99.90;;;;;;5053617;28;20477;-64
2023/04/17 07:00:40;;;;;;;86.80;35.03;;;7.90;99.90;;;;;;5072833;28;20039;-64
2023/04/17 07:03:06;;;;;;;83.15;33.85;;;7.90;99.90;;;;;;5073423;28;20183;-64
2023/04/17 07:05:32;;;;;;;83.95;33.65;;;7.80;99.90;;;;;;5073853;28;20501;-64
2023/04/17 07:07:58;;;;;;;96.80;37.22;;;7.90;99.90;;;;;;5055944;28;20055;-64
2023/04/17 07:10:23;;;;;;;90.25;34.20;;;7.90;99.90;;;;;;5053324;28;20048;-64
2023/04/17 07:12:49;;;;;;;79.28;34.47;;;7.90;99.90;;;;;;5021291;28;20125;-64
2023/04/17 07:15:15;;;;;;;86.00;34.75;;;8.00;99.90;;;;;;5077636;28;20434;-64
2023/04/17 07:17:41;;;;;;;83.90;34.88;;;8.00;99.90;;;;;;5055037;28;21123;-64
2023/04/17 07:20:08;;;;;;;73.20;32.38;;;8.00;99.90;;;;;;5071289;28;20610;-64
2023/04/17 07:22:33;;;;;;;78.72;32.13;;;8.00;99.90;;;;;;5072527;28;20044;-65
2023/04/17 07:24:59;;;;;;;75.88;32.88;;;8.10;99.90;;;;;;5083439;28;20039;-64
2023/04/17 07:27:25;;;;;;;80.97;32.63;;;8.10;99.90;;;;;;5054618;28;20047;-64
2023/04/17 07:29:53;;;;;;;81.70;33.25;;;8.10;99.90;;;;;;5074106;28;20498;-64
2023/04/17 07:32:20;;;;;;;72.85;32.55;;;8.20;99.90;;;;;;5056999;28;20147;-64
2023/04/17 07:34:47;;;;;;;75.97;32.65;;;8.30;99.90;;;;;;5092497;28;20044;-64
2023/04/17 07:37:16;;;;;;;81.93;32.60;;;8.40;99.90;;;;;;5092082;28;20074;-64
2023/04/17 07:39:42;;;;;;;70.35;31.83;;;8.40;99.90;;;;;;5090580;28;20071;-64
2023/04/17 07:42:07;;;;;;;83.07;33.78;;;8.50;99.90;;;;;;5056853;28;20068;-64
2023/04/17 07:44:39;;;;;;;82.28;33.80;;;8.50;99.90;;;;;;5057338;28;20082;-64
2023/04/17 07:47:05;;;;;;;77.28;33.85;;;8.50;99.90;;;;;;5091273;28;20032;-64
2023/04/17 07:49:31;;;;;;;75.70;31.90;;;8.50;99.90;;;;;;5073441;28;20044;-65
2023/04/17 07:51:57;;;;;;;80.80;32.50;;;8.60;99.90;;;;;;5056983;28;20032;-64
2023/04/17 07:54:22;;;;;;;77.25;33.10;;;8.70;99.90;;;;;;5091167;28;20043;-64
2023/04/17 07:56:49;;;;;;;80.90;33.38;;;8.70;99.90;;;;;;5091573;28;20489;-64
2023/04/17 07:59:15;;;;;;;69.47;32.42;;;8.80;99.90;;;;;;5073736;28;20400;-64
2023/04/17 08:01:42;;;;;;;71.95;32.17;;;8.90;99.90;;;;;;5091572;28;20115;-64
2023/04/17 08:04:08;;;;;;;72.20;31.73;;;8.90;99.90;;;;;;5091857;28;20063;-64
2023/04/17 08:06:34;;;;;;;68.28;31.85;;;9.00;99.90;;;;;;5091567;28;20500;-64
2023/04/17 08:09:01;;;;;;;67.07;34.15;;;9.10;99.90;;;;;;5091926;28;20044;-64
2023/04/17 08:11:27;;;;;;;66.78;32.97;;;9.10;99.90;;;;;;5073080;28;20052;-64
2023/04/17 08:13:54;;;;;;;64.07;31.83;;;9.30;99.90;;;;;;5091737;28;20093;-64
2023/04/17 08:16:20;;;;;;;67.90;34.03;;;9.30;99.90;;;;;;5073199;28;20074;-64
2023/04/17 08:18:46;;;;;;;65.13;31.50;;;9.50;99.90;;;;;;5072836;28;20083;-64
2023/04/17 08:21:12;;;;;;;66.55;33.17;;;9.60;99.90;;;;;;5056383;28;20040;-64
2023/04/17 08:23:37;;;;;;;61.28;33.38;;;9.70;99.90;;;;;;5076431;28;20088;-65
2023/04/17 08:26:04;;;;;;;56.53;32.13;;;9.80;99.90;;;;;;5091078;28;20119;-64
2023/04/17 08:28:29;;;;;;;66.15;34.05;;;9.90;99.90;;;;;;5091107;28;20044;-65
2023/04/17 08:30:56;;;;;;;60.55;32.45;;;10.00;99.90;;;;;;5093070;28;20035;-64
2023/04/17 08:33:21;;;;;;;67.45;31.75;;;10.10;99.90;;;;;;5100491;28;20048;-64
2023/04/17 08:35:47;;;;;;;55.80;30.35;;;10.20;99.90;;;;;;5072753;28;20178;-65
2023/04/17 08:38:13;;;;;;;53.85;30.95;;;10.20;99.90;;;;;;5072434;28;20036;-64
2023/04/17 08:40:45;;;;;;;51.22;30.63;;;10.40;99.90;;;;;;5075422;28;20044;-64
2023/04/17 08:43:16;;;;;;;51.25;30.17;;;10.50;99.90;;;;;;5072406;28;20412;-65
2023/04/17 08:45:54;;;;;;;52.92;30.35;;;10.60;99.90;;;;;;5091260;28;20032;-64
2023/04/17 08:48:20;;;;;;;45.42;28.30;;;10.80;99.90;;;;;;5087870;28;20050;-64
2023/04/17 08:50:48;;;;;;;48.78;29.52;;;11.00;99.90;;;;;;5072371;28;20501;-64
2023/04/17 08:53:15;;;;;;;47.70;27.95;;;11.30;99.90;;;;;;5090824;28;20249;-64
2023/04/17 08:55:41;;;;;;;46.35;28.65;;;11.30;99.90;;;;;;5070543;28;20043;-64
2023/04/17 08:58:08;;;;;;;45.63;28.92;;;11.40;99.90;;;;;;5054781;28;20043;-65
2023/04/17 09:00:41;;;;;;;42.92;26.60;;;11.60;99.90;;;;;;5072569;28;20112;-64
2023/04/17 09:03:12;;;;;;;46.67;27.58;;;11.70;99.90;;;;;;5090393;28;20040;-64
2023/04/17 09:05:41;;;;;;;42.78;27.67;;;12.00;99.90;;;;;;5089119;28;20100;-64
2023/04/17 09:08:19;;;;;;;42.72;27.58;;;12.30;99.90;;;;;;5090276;28;20038;-64
2023/04/17 09:10:53;;;;;;;40.95;26.80;;;12.50;99.90;;;;;;5055742;28;20059;-64
2023/04/17 09:13:23;;;;;;;40.10;25.20;;;12.50;99.90;;;;;;5071669;28;20398;-64
2023/04/17 09:16:11;;;;;;;38.20;25.00;;;12.70;99.90;;;;;;5071675;28;20063;-65
2023/04/17 09:18:38;;;;;;;38.20;24.65;;;12.90;99.90;;;;;;5073327;28;20107;-65
2023/04/17 09:21:06;;;;;;;37.65;24.63;;;13.00;99.90;;;;;;5053499;28;20496;-64
2023/04/17 09:23:48;;;;;;;38.28;24.27;;;12.80;99.90;;;;;;5048177;28;20052;-65
2023/04/17 09:26:20;;;;;;;33.85;23.33;;;12.90;99.90;;;;;;5046268;28;20491;-65
2023/04/17 09:29:10;;;;;;;34.58;22.55;;;12.90;99.90;;;;;;5048466;28;20180;-65
2023/04/17 09:31:37;;;;;;;35.00;21.23;;;13.10;99.90;;;;;;5050002;28;20045;-65
2023/04/17 09:34:06;;;;;;;31.52;21.75;;;13.20;99.90;;;;;;5048592;28;20036;-65
2023/04/17 09:36:36;;;;;;;31.85;20.80;;;13.20;99.90;;;;;;5050094;28;20087;-64
2023/04/17 09:39:05;;;;;;;29.42;20.92;;;13.00;99.90;;;;;;5049764;28;20044;-64
2023/04/17 09:41:37;;;;;;;28.20;19.77;;;13.20;99.90;;;;;;5048371;28;20398;-65
2023/04/17 09:44:04;;;;;;;34.35;21.23;;;13.20;99.90;;;;;;5048304;28;20144;-65
2023/04/17 09:46:34;;;;;;;25.38;18.90;;;13.40;99.90;;;;;;5048273;28;20044;-65
2023/04/17 09:49:39;;;;;;;22.65;17.00;;;13.70;99.90;;;;;;5048253;28;20555;-64
2023/04/17 09:52:05;;;;;;;22.95;17.05;;;14.20;99.90;;;;;;4987632;28;20207;-65
2023/04/17 09:54:36;;;;;;;25.13;17.60;;;14.40;99.90;;;;;;5038250;28;20048;-65
2023/04/17 09:57:07;;;;;;;21.00;16.42;;;14.90;99.90;;;;;;5048004;28;20083;-65
2023/04/17 09:59:33;;;;;;;24.60;17.23;;;15.30;99.90;;;;;;5049052;28;20032;-65
2023/04/17 10:02:01;;;;;;;24.85;17.25;;;15.90;99.90;;;;;;5046142;28;20116;-65
2023/04/17 10:04:28;;;;;;;24.60;17.02;;;16.40;99.90;;;;;;5048139;28;20037;-65
2023/04/17 10:06:56;;;;;;;26.13;16.80;;;16.60;99.90;;;;;;5038678;28;20036;-65
2023/04/17 10:09:22;;;;;;;21.25;15.82;;;16.60;99.90;;;;;;5042937;28;20550;-65
2023/04/17 10:11:48;;;;;;;23.60;15.65;;;16.70;99.90;;;;;;5038430;28;20123;-65
2023/04/17 10:14:23;;;;;;;19.42;14.30;;;17.30;99.90;;;;;;5037869;28;20029;-65
2023/04/17 10:16:49;;;;;;;17.52;13.25;;;17.40;99.90;;;;;;5041571;28;20077;-65
2023/04/17 10:19:29;;;;;;;19.17;12.50;;;17.90;99.90;;;;;;5053939;28;20073;-65
2023/04/17 10:22:15;;;;;;;19.02;13.80;;;18.00;99.70;;;;;;5072522;28;20471;-65
2023/04/17 10:24:50;;;;;;;17.50;13.20;;;17.40;99.90;;;;;;5079413;28;20032;-65
2023/04/17 10:27:25;;;;;;;18.00;12.32;;;17.30;99.90;;;;;;5080233;28;20035;-66
2023/04/17 10:29:55;;;;;;;16.73;12.05;;;17.10;99.90;;;;;;5079873;28;20162;-65
2023/04/17 10:32:27;;;;;;;20.50;12.90;;;17.60;99.90;;;;;;5078647;28;20039;-65
2023/04/17 10:35:15;;;;;;;14.88;12.02;;;17.90;99.90;;;;;;5080130;28;20488;-65
2023/04/17 10:37:48;;;;;;;17.20;11.02;;;17.70;99.30;;;;;;5075562;28;20040;-65
2023/04/17 10:40:28;;;;;;;15.90;10.90;;;17.30;97.50;;;;;;5065416;28;20047;-65
2023/04/17 10:43:10;;;;;;;16.65;11.18;;;17.50;99.90;;;;;;5061508;28;20046;-65
2023/04/17 10:46:04;;;;;;;15.02;12.25;;;17.50;98.00;;;;;;5080183;28;20051;-65
2023/04/17 10:48:51;;;;;;;16.30;12.20;;;17.50;98.70;;;;;;5078905;28;20038;-64
2023/04/17 10:51:22;;;;;;;13.52;10.95;;;17.70;99.20;;;;;;5082087;28;20040;-65
2023/04/17 10:53:55;;;;;;;15.70;11.80;;;18.10;98.50;;;;;;5060501;28;20052;-65
2023/04/17 10:56:24;;;;;;;;;;;18.70;99.00;;;;;;5050469;28;20047;-65
2023/04/17 10:58:57;;;;;;;14.50;11.63;;;19.20;97.30;;;;;;5066901;28;19931;-65
2023/04/17 11:01:56;;;;;;;15.85;12.07;;;19.20;97.20;;;;;;5081929;28;20950;-65
2023/04/17 11:04:27;;;;;;;20.58;12.57;;;19.00;97.20;;;;;;5067037;28;20036;-65
2023/04/17 11:06:54;;;;;;;15.88;12.80;;;18.90;97.30;;;;;;5075984;28;20063;-65
2023/04/17 11:09:22;;;;;;;16.67;12.55;;;18.20;96.80;;;;;;5060501;28;20087;-66
2023/04/17 11:11:47;;;;;;;18.40;13.10;;;17.80;97.20;;;;;;5071138;28;20040;-66
2023/04/17 11:14:15;;;;;;;16.33;11.77;;;17.30;97.70;;;;;;5060607;28;20055;-66
2023/04/17 11:16:43;;;;;;;14.93;11.38;;;17.00;98.20;;;;;;5058454;28;20047;-65
2023/04/17 11:19:10;;;;;;;14.02;11.15;;;16.60;98.20;;;;;;5078704;28;20044;-65
2023/04/17 11:21:44;;;;;;;19.30;11.98;;;16.50;98.80;;;;;;5078110;28;20048;-66
2023/04/17 11:24:10;;;;;;;16.42;13.07;;;16.20;99.10;;;;;;5083273;28;20039;-65
2023/04/17 11:26:47;;;;;;;14.75;11.45;;;16.30;99.10;;;;;;5045011;28;20044;-66
2023/04/17 11:29:17;;;;;;;15.88;11.57;;;16.70;99.30;;;;;;5064659;28;20047;-66
2023/04/17 11:31:47;;;;;;;15.50;11.27;;;17.10;98.40;;;;;;5064228;28;20477;-65
2023/04/17 11:34:14;;;;;;;15.48;11.57;;;17.40;98.50;;;;;;5064192;28;20551;-65
2023/04/17 11:36:50;;;;;;;17.02;13.35;;;17.30;98.30;;;;;;5061912;28;20040;-65
2023/04/17 11:39:16;;;;;;;14.43;11.68;;;17.60;98.60;;;;;;5080412;28;20043;-66
2023/04/17 11:41:44;;;;;;;17.02;12.60;;;17.60;98.30;;;;;;5062185;28;20496;-65
2023/04/17 11:44:14;;;;;;;19.58;13.48;;;17.30;98.50;;;;;;5063855;28;20047;-65
2023/04/17 11:46:39;;;;;;;17.15;13.40;;;16.90;98.60;;;;;;5081548;28;20044;-65
2023/04/17 11:49:06;;;;;;;18.88;13.82;;;16.40;99.30;;;;;;5063330;28;20071;-65
2023/04/17 11:51:32;;;;;;;16.77;13.15;;;16.50;99.90;;;;;;5080807;28;20397;-65
2023/04/17 11:53:58;;;;;;;16.50;12.48;;;16.80;99.90;;;;;;5063585;28;20043;-65
2023/04/17 11:56:28;;;;;;;15.95;12.85;;;17.10;99.80;;;;;;5044876;28;20047;-65
2023/04/17 11:58:58;;;;;;;19.33;13.63;;;17.00;99.60;;;;;;5057489;28;20074;-66
2023/04/17 12:01:26;;;;;;;20.42;12.90;;;17.30;99.90;;;;;;5058343;28;20541;-66
2023/04/17 12:03:58;;;;;;;15.02;11.50;;;17.50;98.70;;;;;;5071791;28;20030;-66
2023/04/17 12:06:34;;;;;;;;;;;17.80;98.00;;;;;;5071958;28;20237;-65
2023/04/17 12:09:00;;;;;;;16.35;12.82;;;17.90;97.50;;;;;;5054651;28;20002;-65
2023/04/17 12:11:30;;;;;;;16.83;13.02;;;18.20;98.30;;;;;;5035254;28;20815;-65
2023/04/17 12:13:56;;;;;;;17.17;12.82;;;18.10;97.50;;;;;;5070431;28;20052;-65
2023/04/17 12:16:23;;;;;;;16.20;13.32;;;17.90;97.80;;;;;;5071783;28;20113;-65
2023/04/17 12:18:49;;;;;;;16.15;12.50;;;17.70;97.90;;;;;;5052961;28;21115;-65
2023/04/17 12:21:15;;;;;;;16.13;12.85;;;17.50;97.70;;;;;;5070608;28;20523;-65
2023/04/17 12:23:41;;;;;;;16.83;11.77;;;17.40;96.60;;;;;;5053693;28;20039;-65
2023/04/17 12:26:08;;;;;;;19.67;13.73;;;17.20;97.70;;;;;;5070131;28;20123;-65
2023/04/17 12:28:34;;;;;;;16.00;12.43;;;17.10;98.10;;;;;;5053622;28;20044;-65
2023/04/17 12:30:59;;;;;;;16.65;13.02;;;17.40;98.70;;;;;;5053585;28;22131;-67
2023/04/17 12:33:25;;;;;;;17.98;13.27;;;17.90;99.30;;;;;;5071197;28;20460;-66